Time;durP1;ratioP1;P1;durP2;ratioP2;P2;SDS_P1;SDS_P2;PMS_P1;PMS_P2;Temp;Humidity;BMP_temperature;BMP_pressure;BME280_temperature;BME280_humidity;BME280_pressure;Samples;Min_cycle;Max_cycle;Signal;HPM_P1;HPM_P2
2022/05/07 00:01:46;;;;;;;;;8.50;8.25;;;;;18.36;43.84;101968.13;5095266;27;45439;-67
2022/05/07 00:04:11;;;;;;;;;6.75;5.00;;;;;18.09;44.12;101918.16;5094921;27;46018;-67
2022/05/07 00:06:36;;;;;;;;;5.75;5.75;;;;;18.38;44.15;101963.69;5094922;27;45468;-68
2022/05/07 00:09:02;;;;;;;;;10.75;8.25;;;;;18.36;44.74;101949.19;5095215;27;45424;-68
2022/05/07 00:11:28;;;;;;;;;10.00;8.75;;;;;18.27;45.04;101938.25;5094925;27;45437;-67
2022/05/07 00:13:53;;;;;;;;;8.75;8.75;;;;;18.32;45.25;101950.94;5094988;27;45375;-67
2022/05/07 00:19:03;;;;;;;;;10.00;8.00;;;;;18.27;45.48;101959.91;5094827;27;45432;-67
2022/05/07 00:21:29;;;;;;;;;8.00;6.00;;;;;17.80;45.85;101880.78;5095498;27;45730;-67
2022/05/07 00:23:54;;;;;;;;;9.50;8.00;;;;;18.21;46.13;101952.59;5094980;27;45992;-67
2022/05/07 00:26:19;;;;;;;;;9.00;7.75;;;;;18.05;46.25;101924.44;5094807;27;45377;-69
2022/05/07 00:28:45;;;;;;;;;14.50;10.25;;;;;18.17;46.12;101948.03;5094892;27;45524;-67
2022/05/07 00:31:11;;;;;;;;;10.75;9.00;;;;;18.10;46.54;101955.16;5095155;27;45442;-66
2022/05/07 00:33:36;;;;;;;;;6.25;6.25;;;;;18.09;46.47;101955.13;5094809;27;45500;-66
2022/05/07 00:36:02;;;;;;;;;6.00;6.00;;;;;17.95;46.52;101928.81;5094832;27;45285;-67
2022/05/07 00:38:28;;;;;;;;;16.50;15.50;;;;;17.97;46.69;101934.25;5095280;27;45557;-68
2022/05/07 00:40:53;;;;;;;;;10.00;9.00;;;;;18.04;46.36;101942.44;5094904;27;45478;-66
2022/05/07 00:43:19;;;;;;;;;8.75;8.75;;;;;17.82;46.73;101911.44;5094595;27;45419;-66
2022/05/07 00:45:47;;;;;;;;;8.25;8.25;;;;;17.81;46.91;101924.94;5093827;27;45520;-68
2022/05/07 00:48:14;;;;;;;;;11.75;10.50;;;;;17.90;47.36;101949.47;5107876;27;45499;-68
2022/05/07 00:53:24;;;;;;;;;10.75;8.75;;;;;17.77;47.95;101939.28;5110004;27;45333;-67
2022/05/07 00:55:51;;;;;;;;;9.25;9.00;;;;;17.56;47.97;101920.94;5114326;27;45396;-67
2022/05/07 00:58:18;;;;;;;;;5.75;5.75;;;;;17.60;48.41;101928.19;5114535;27;45448;-68
2022/05/07 01:00:46;;;;;;;;;9.25;7.75;;;;;17.59;48.42;101938.13;5114462;27;45381;-69
2022/05/07 01:03:12;;;;;;;;;11.25;9.50;;;;;17.45;48.34;101908.16;5114169;27;45478;-68
2022/05/07 01:05:39;;;;;;;;;13.75;10.00;;;;;17.49;48.54;101920.84;5113792;27;45454;-68
2022/05/07 01:08:05;;;;;;;;;10.25;8.25;;;;;17.12;48.85;101874.28;5114042;27;45407;-67
2022/05/07 01:10:32;;;;;;;;;11.25;11.25;;;;;17.45;48.31;101928.84;5114433;27;45306;-67
2022/05/07 01:12:57;;;;;;;;;8.50;8.00;;;;;17.33;49.16;101932.25;5114065;27;45527;-67
2022/05/07 01:15:24;;;;;;;;;7.50;7.50;;;;;17.33;48.99;101934.97;5113979;27;45562;-67
2022/05/07 01:17:50;;;;;;;;;11.50;10.00;;;;;17.35;48.37;101932.28;5114475;27;45532;-66
2022/05/07 01:20:15;;;;;;;;;9.00;8.25;;;;;17.36;49.13;101934.13;5114119;27;45480;-67
2022/05/07 01:22:42;;;;;;;;;10.75;8.75;;;;;17.28;48.75;101928.56;5113764;27;45725;-68
2022/05/07 01:25:07;;;;;;;;;10.00;10.00;;;;;17.24;49.08;101927.63;5113746;27;45435;-67
2022/05/07 01:27:33;;;;;;;;;11.25;9.25;;;;;17.24;49.03;101929.38;5114075;27;45466;-67
2022/05/07 01:29:58;;;;;;;;;13.75;8.75;;;;;17.26;49.15;101938.44;5114234;27;45346;-69
2022/05/07 01:32:24;;;;;;;;;13.50;10.25;;;;;16.93;48.47;101870.34;5113750;27;45796;-66
2022/05/07 01:34:51;;;;;;;;;10.00;10.00;;;;;17.09;48.96;101903.94;5113670;27;45353;-66
2022/05/07 01:37:17;;;;;;;;;13.75;11.25;;;;;16.94;49.00;101893.78;5113955;27;45478;-67
2022/05/07 01:39:42;;;;;;;;;10.50;10.25;;;;;17.05;49.55;101918.25;5114069;27;45550;-67
2022/05/07 01:42:08;;;;;;;;;12.00;7.00;;;;;17.08;49.48;101934.53;5113750;27;46153;-66
2022/05/07 01:44:33;;;;;;;;;14.00;12.00;;;;;17.06;49.75;101924.56;5113587;27;45487;-66
2022/05/07 01:49:43;;;;;;;;;12.25;10.50;;;;;16.84;50.06;101916.03;5114156;27;45478;-66
2022/05/07 01:52:08;;;;;;;;;10.50;9.75;;;;;17.00;50.04;101935.25;5113472;27;45452;-67
2022/05/07 01:54:33;;;;;;;;;5.75;5.75;;;;;17.01;49.68;101928.97;5113336;27;45407;-65
2022/05/07 01:56:59;;;;;;;;;19.00;12.75;;;;;16.95;50.56;101927.06;5114698;27;45411;-68
2022/05/07 01:59:24;;;;;;;;;17.00;12.50;;;;;16.66;50.00;101884.19;5117497;27;45348;-67
2022/05/07 02:01:49;;;;;;;;;11.75;9.50;;;;;16.91;49.88;101926.13;5117391;27;45508;-66
2022/05/07 02:04:15;;;;;;;;;11.75;11.25;;;;;16.91;50.01;101927.88;5116786;27;49219;-67
2022/05/07 02:06:40;;;;;;;;;11.50;10.00;;;;;16.40;50.72;101844.13;5117118;27;45337;-67
2022/05/07 02:09:05;;;;;;;;;13.25;13.25;;;;;16.76;50.65;101914.97;5117079;27;45506;-67
2022/05/07 02:11:30;;;;;;;;;8.25;6.50;;;;;16.67;51.06;101912.09;5116775;27;46100;-67
2022/05/07 02:13:56;;;;;;;;;15.75;11.00;;;;;16.63;50.53;101885.91;5116735;27;45570;-67
2022/05/07 02:16:21;;;;;;;;;15.50;14.50;;;;;16.85;50.52;101920.59;5117011;27;45541;-67
2022/05/07 02:18:46;;;;;;;;;12.00;11.50;;;;;16.85;50.42;101917.00;5116899;27;45394;-68
2022/05/07 02:21:12;;;;;;;;;11.25;11.25;;;;;16.69;51.09;101896.84;5116687;27;45883;-67
2022/05/07 02:23:37;;;;;;;;;15.00;12.25;;;;;16.80;50.97;101913.25;5116515;27;45498;-68
2022/05/07 02:26:04;;;;;;;;;14.00;14.00;;;;;16.71;50.97;101914.91;5116802;27;45387;-67
2022/05/07 02:28:29;;;;;;;;;13.50;11.50;;;;;16.57;51.30;101908.31;5110417;27;45332;-67
2022/05/07 02:30:54;;;;;;;;;12.00;10.50;;;;;16.64;51.27;101928.22;5078362;27;46995;-67
2022/05/07 02:33:20;;;;;;;;;14.25;12.75;;;;;16.61;51.26;101923.66;5115841;27;46044;-66
2022/05/07 02:35:45;;;;;;;;;15.25;10.50;;;;;16.56;51.14;101925.34;5116382;27;45507;-67
2022/05/07 02:38:10;;;;;;;;;13.75;12.75;;;;;16.58;51.57;101924.53;5116735;27;45427;-67
2022/05/07 02:43:20;;;;;;;;;13.25;13.25;;;;;16.33;51.27;101882.66;5116177;27;45489;-67
2022/05/07 02:45:45;;;;;;;;;15.50;10.25;;;;;16.51;51.70;101927.06;5109477;27;45460;-67
2022/05/07 02:48:11;;;;;;;;;12.00;10.50;;;;;16.17;51.53;101869.72;5116740;27;45395;-66
2022/05/07 02:50:36;;;;;;;;;14.75;10.75;;;;;16.51;51.64;101916.25;5116037;27;49563;-68
2022/05/07 02:53:01;;;;;;;;;12.00;8.75;;;;;16.30;51.68;101884.34;5116256;27;45394;-69
2022/05/07 02:55:27;;;;;;;;;15.25;13.00;;;;;16.47;51.57;101919.78;5116250;27;45548;-65
2022/05/07 02:57:52;;;;;;;;;14.50;13.75;;;;;16.23;52.11;101899.50;5116421;27;45475;-68
2022/05/07 03:00:18;;;;;;;;;14.75;14.25;;;;;16.27;52.33;101917.56;5115902;27;47016;-66
2022/05/07 03:02:43;;;;;;;;;14.25;14.25;;;;;16.28;52.58;101916.69;5115882;27;45578;-67
2022/05/07 03:05:08;;;;;;;;;13.75;13.75;;;;;16.22;52.84;101921.97;5116625;27;45721;-66
2022/05/07 03:07:34;;;;;;;;;13.00;13.00;;;;;16.23;52.43;101918.38;5115924;27;45498;-67
2022/05/07 03:09:59;;;;;;;;;16.50;15.50;;;;;16.27;53.29;101920.28;5116342;27;47245;-67
2022/05/07 03:12:25;;;;;;;;;16.25;13.25;;;;;16.17;52.85;101902.09;5115994;27;45299;-68
2022/05/07 03:14:50;;;;;;;;;19.00;14.25;;;;;16.20;53.14;101911.16;5115954;27;45348;-67
2022/05/07 03:17:17;;;;;;;;;11.50;10.75;;;;;16.03;53.14;101883.78;5116018;27;45594;-66
2022/05/07 03:19:42;;;;;;;;;17.00;15.00;;;;;16.17;53.51;101916.47;5115540;27;46012;-66
2022/05/07 03:22:08;;;;;;;;;15.25;13.50;;;;;16.08;53.60;101907.25;5116036;27;45702;-68
2022/05/07 03:24:37;;;;;;;;;19.50;15.50;;;;;15.68;53.44;101826.38;5115893;27;45425;-66
2022/05/07 03:27:04;;;;;;;;;14.50;13.75;;;;;16.21;53.05;101915.63;5116138;27;45784;-67
2022/05/07 03:29:29;;;;;;;;;13.75;13.25;;;;;16.20;53.49;101904.81;5115395;27;46288;-68
2022/05/07 03:31:54;;;;;;;;;12.25;12.25;;;;;16.18;53.72;101910.16;5115027;27;45640;-67
2022/05/07 03:34:20;;;;;;;;;13.75;12.00;;;;;16.12;53.56;101903.75;5084408;27;45354;-68
2022/05/07 03:36:45;;;;;;;;;16.00;13.50;;;;;16.08;53.90;101913.56;5115796;27;45391;-67
2022/05/07 03:39:12;;;;;;;;;9.75;9.75;;;;;16.16;54.04;101919.13;5108953;27;46279;-67
2022/05/07 03:41:38;;;;;;;;;17.75;15.50;;;;;16.16;54.35;101916.44;5095977;27;45638;-68
2022/05/07 03:44:03;;;;;;;;;15.50;13.25;;;;;16.09;54.27;101907.28;5096370;27;45483;-67
2022/05/07 03:46:29;;;;;;;;;12.50;10.25;;;;;16.06;54.57;101904.53;5096791;27;45641;-67
2022/05/07 03:48:55;;;;;;;;;14.25;13.25;;;;;16.02;54.42;101903.56;5095513;27;47095;-68
2022/05/07 03:51:20;;;;;;;;;16.50;15.25;;;;;16.08;54.21;101909.94;5095616;27;45493;-66
2022/05/07 03:53:45;;;;;;;;;18.25;16.00;;;;;16.05;54.29;101901.78;5095567;27;45434;-68
2022/05/07 03:56:11;;;;;;;;;16.75;13.00;;;;;15.70;54.55;101823.72;5091721;27;45632;-66
2022/05/07 03:58:37;;;;;;;;;15.75;15.00;;;;;16.10;54.50;101892.00;5095505;27;45643;-67
2022/05/07 04:01:03;;;;;;;;;16.75;11.50;;;;;16.01;54.79;101900.81;5095720;27;45413;-67
2022/05/07 04:03:30;;;;;;;;;16.00;13.25;;;;;15.98;54.78;101898.06;5095821;27;45416;-67
2022/05/07 04:05:56;;;;;;;;;19.50;15.25;;;;;15.97;55.14;101909.69;5090543;27;45504;-67
2022/05/07 04:08:23;;;;;;;;;16.75;15.50;;;;;15.91;54.97;101888.03;5095266;27;45555;-68
2022/05/07 04:10:49;;;;;;;;;19.75;15.25;;;;;15.89;55.39;101909.53;5095304;27;45377;-67
2022/05/07 04:13:17;;;;;;;;;16.25;14.25;;;;;15.89;55.52;101903.22;5095309;27;45444;-67
2022/05/07 04:15:43;;;;;;;;;18.50;16.25;;;;;15.72;55.65;101873.16;5095454;27;45416;-67
2022/05/07 04:18:10;;;;;;;;;16.00;16.00;;;;;15.73;55.81;101888.47;5095050;27;46431;-67
2022/05/07 04:20:36;;;;;;;;;17.25;16.25;;;;;15.68;56.23;101898.22;5093854;27;45368;-67
2022/05/07 04:23:02;;;;;;;;;20.75;17.50;;;;;15.68;55.79;101901.81;5095021;27;45477;-66
2022/05/07 04:25:27;;;;;;;;;18.25;15.00;;;;;15.70;55.95;101896.47;5095175;27;45509;-68
2022/05/07 04:27:53;;;;;;;;;14.50;13.00;;;;;15.60;56.17;101873.78;5094857;27;45781;-67
2022/05/07 04:30:22;;;;;;;;;17.25;14.25;;;;;15.65;55.85;101886.47;5095531;27;45463;-68
2022/05/07 04:32:48;;;;;;;;;16.00;16.00;;;;;15.40;55.82;101833.81;5095187;27;45259;-68
2022/05/07 04:35:14;;;;;;;;;17.00;14.75;;;;;15.78;55.97;101903.00;5095302;27;45511;-68
2022/05/07 04:37:39;;;;;;;;;16.50;16.00;;;;;15.69;55.91;101883.88;5094925;27;46313;-68
2022/05/07 04:40:05;;;;;;;;;18.75;15.25;;;;;15.63;55.81;101888.22;5089906;27;45417;-68
2022/05/07 04:42:30;;;;;;;;;22.00;17.50;;;;;15.53;55.97;101874.53;5094542;27;45339;-68
2022/05/07 04:44:56;;;;;;;;;16.75;16.00;;;;;15.70;56.13;101910.84;5094880;27;45269;-68
2022/05/07 04:47:21;;;;;;;;;18.25;17.25;;;;;15.46;56.58;101873.47;5094479;27;48804;-68
2022/05/07 04:49:46;;;;;;;;;22.00;16.25;;;;;15.57;57.12;101908.72;5094868;27;45812;-67
2022/05/07 04:52:12;;;;;;;;;21.00;20.50;;;;;15.46;57.14;101906.69;5094955;27;45394;-69
2022/05/07 04:54:38;;;;;;;;;24.00;22.00;;;;;15.38;57.20;101896.59;5094680;27;45496;-68
2022/05/07 04:57:04;;;;;;;;;20.50;19.00;;;;;15.33;57.50;101876.69;5096247;27;45508;-67
2022/05/07 04:59:29;;;;;;;;;26.00;21.50;;;;;15.48;57.31;101895.97;5094494;27;45452;-68
2022/05/07 05:01:55;;;;;;;;;24.75;18.50;;;;;15.52;57.43;101903.22;5094671;27;45327;-67
2022/05/07 05:04:20;;;;;;;;;18.25;15.75;;;;;15.41;57.32;101872.41;5094874;27;45471;-67
2022/05/07 05:06:46;;;;;;;;;21.25;19.00;;;;;15.62;57.04;101902.59;5089639;27;47357;-68
2022/05/07 05:09:15;;;;;;;;;36.25;31.25;;;;;15.53;56.75;101879.91;5094268;27;45532;-67
2022/05/07 05:11:40;;;;;;;;;22.25;19.50;;;;;15.61;56.95;101887.28;5094381;27;45530;-68
2022/05/07 05:16:50;;;;;;;;;23.75;21.25;;;;;15.52;57.94;101894.25;5099096;27;45828;-68
2022/05/07 05:19:16;;;;;;;;;22.50;19.00;;;;;15.43;57.96;101889.56;5113926;27;45554;-67
2022/05/07 05:21:42;;;;;;;;;23.50;18.25;;;;;15.50;58.12;101901.38;5113896;27;45340;-68
2022/05/07 05:24:07;;;;;;;;;24.75;23.00;;;;;15.57;57.87;101906.03;5113902;27;45368;-66
2022/05/07 05:26:33;;;;;;;;;20.25;19.25;;;;;15.61;57.41;101900.75;5113658;27;45420;-68
2022/05/07 05:28:58;;;;;;;;;24.00;22.25;;;;;15.62;57.71;101886.44;5113934;27;45511;-68
2022/05/07 05:31:23;;;;;;;;;22.50;20.00;;;;;15.61;57.59;101883.69;5115629;27;45462;-67
2022/05/07 05:33:49;;;;;;;;;21.50;21.00;;;;;15.53;58.00;101894.28;5117535;27;45533;-67
2022/05/07 05:36:15;;;;;;;;;19.00;19.00;;;;;15.41;58.12;101888.56;5117396;27;45392;-66
2022/05/07 05:38:40;;;;;;;;;20.25;18.75;;;;;15.46;58.50;101897.72;5117385;27;45454;-68
2022/05/07 05:41:06;;;;;;;;;28.00;24.75;;;;;15.43;58.70;101890.44;5117439;27;45326;-68
2022/05/07 05:43:31;;;;;;;;;21.00;19.75;;;;;15.30;58.75;101869.47;5117453;27;45439;-67
2022/05/07 05:45:57;;;;;;;;;21.25;21.25;;;;;15.41;58.08;101881.44;5110212;27;46255;-67
2022/05/07 05:48:24;;;;;;;;;28.25;24.25;;;;;15.54;58.73;101906.88;5117094;27;45431;-68
2022/05/07 05:50:49;;;;;;;;;25.00;23.75;;;;;15.48;58.54;101904.94;5098454;27;45360;-66
2022/05/07 05:53:15;;;;;;;;;21.25;19.25;;;;;15.65;58.15;101902.66;5117395;27;46059;-67
2022/05/07 05:55:40;;;;;;;;;29.50;23.25;;;;;15.75;57.88;101902.88;5096931;27;46577;-67
2022/05/07 05:58:05;;;;;;;;;27.00;23.00;;;;;15.73;57.69;101905.53;5097333;27;45440;-68
2022/05/07 06:00:31;;;;;;;;;28.50;24.50;;;;;15.76;58.07;101910.13;5097976;27;45327;-68
2022/05/07 06:02:56;;;;;;;;;26.50;22.50;;;;;15.80;57.59;101901.22;5098333;27;45386;-68
2022/05/07 06:05:21;;;;;;;;;20.75;20.75;;;;;15.85;57.65;101910.31;5096807;27;46000;-69
2022/05/07 06:07:47;;;;;;;;;22.00;19.25;;;;;15.92;57.69;101906.00;5096841;27;45530;-68
2022/05/07 06:10:12;;;;;;;;;21.00;20.50;;;;;15.93;57.65;101903.31;5096354;27;45366;-69
2022/05/07 06:12:37;;;;;;;;;23.50;22.50;;;;;15.76;57.38;101858.94;5099853;27;45271;-69
2022/05/07 06:15:04;;;;;;;;;24.75;22.25;;;;;16.06;57.40;101906.31;5097222;27;45618;-69
2022/05/07 06:17:29;;;;;;;;;25.00;24.50;;;;;16.09;57.05;101893.81;5097055;27;45471;-68
2022/05/07 06:19:54;;;;;;;;;36.75;23.50;;;;;16.15;56.50;101893.03;5096774;27;45667;-68
2022/05/07 06:22:20;;;;;;;;;34.00;29.25;;;;;16.18;56.55;101911.97;5096940;27;45586;-69
2022/05/07 06:27:31;;;;;;;;;24.50;21.75;;;;;16.03;56.46;101873.00;5096827;27;45424;-68
2022/05/07 06:30:05;;;;;;;;;22.50;20.00;;;;;16.21;56.75;101904.84;5096810;27;45343;-68
2022/05/07 06:32:34;;;;;;;;;21.75;21.25;;;;;16.21;56.63;101920.13;5096898;27;45350;-68
2022/05/07 06:35:03;;;;;;;;;23.75;20.50;;;;;16.26;56.75;101923.84;5096312;27;45597;-69
2022/05/07 06:37:29;;;;;;;;;20.25;16.25;;;;;16.29;56.44;101939.19;5096541;27;45519;-69
2022/05/07 06:39:54;;;;;;;;;26.00;20.25;;;;;15.88;56.73;101869.97;5096544;27;45910;-68
2022/05/07 06:42:20;;;;;;;;;27.25;21.25;;;;;15.90;56.75;101873.59;5096281;27;45505;-68
2022/05/07 06:44:45;;;;;;;;;19.50;16.75;;;;;16.35;56.50;101939.28;5096037;27;45507;-67
2022/05/07 06:47:10;;;;;;;;;27.50;23.50;;;;;16.38;56.48;101943.00;5096174;27;45342;-66
2022/05/07 06:49:37;;;;;;;;;22.50;20.25;;;;;16.29;56.72;101934.69;5096651;27;45287;-67
2022/05/07 06:52:03;;;;;;;;;30.75;23.25;;;;;16.38;56.36;101948.38;5096589;27;45440;-71
2022/05/07 06:54:28;;;;;;;;;22.00;20.25;;;;;16.40;56.12;101937.63;5095721;27;46379;-66
2022/05/07 06:56:53;;;;;;;;;28.75;25.75;;;;;16.29;56.18;101941.88;5095890;27;45844;-74
2022/05/07 06:59:20;;;;;;;;;26.50;23.75;;;;;16.29;56.68;101929.31;5096271;27;45763;-67
2022/05/07 07:01:46;;;;;;;;;23.00;17.25;;;;;16.51;56.48;101949.53;5096373;27;45576;-67
2022/05/07 07:04:12;;;;;;;;;26.25;19.00;;;;;16.42;56.26;101952.06;5095660;27;45463;-67
2022/05/07 07:06:37;;;;;;;;;22.25;20.75;;;;;16.33;56.47;101943.75;5095857;27;45620;-67
2022/05/07 07:09:03;;;;;;;;;22.50;18.50;;;;;16.49;56.43;101956.69;5095700;27;45475;-67
2022/05/07 07:11:28;;;;;;;;;26.75;24.50;;;;;16.51;55.99;101954.03;5096002;27;45367;-66
2022/05/07 07:13:54;;;;;;;;;19.00;17.00;;;;;16.57;56.11;101956.88;5095696;27;46320;-68
2022/05/07 07:16:19;;;;;;;;;31.75;25.00;;;;;16.45;56.24;101941.34;5095820;27;45301;-67
2022/05/07 07:18:44;;;;;;;;;27.00;22.25;;;;;16.46;56.49;101953.03;5096056;27;45358;-68
2022/05/07 07:21:12;;;;;;;;;26.75;26.25;;;;;16.44;56.72;101957.50;5096390;27;45595;-68
2022/05/07 07:23:37;;;;;;;;;27.50;27.50;;;;;16.48;56.87;101943.16;5095562;27;46174;-68
2022/05/07 07:26:05;;;;;;;;;27.50;20.00;;;;;16.51;56.94;101948.63;5095300;27;45460;-68
2022/05/07 07:28:31;;;;;;;;;28.00;25.75;;;;;16.56;56.07;101949.63;5096254;27;45373;-66
2022/05/07 07:30:58;;;;;;;;;26.75;23.75;;;;;16.65;56.19;101947.16;5096200;27;45461;-67
2022/05/07 07:33:23;;;;;;;;;27.25;25.50;;;;;16.62;55.96;101921.91;5095028;27;45495;-65
2022/05/07 07:35:49;;;;;;;;;23.50;20.75;;;;;16.85;55.70;101944.88;5094951;27;45068;-68
2022/05/07 07:38:14;;;;;;;;;25.75;19.00;;;;;16.95;55.77;101951.38;5095318;27;45499;-67
2022/05/07 07:40:41;;;;;;;;;26.50;22.50;;;;;17.04;55.46;101948.88;5091386;27;45232;-67
2022/05/07 07:43:06;;;;;;;;;17.25;17.25;;;;;17.09;54.95;101954.31;5095000;27;47206;-69
2022/05/07 07:48:16;;;;;;;;;22.50;18.25;;;;;17.22;55.01;101953.66;5095504;27;45607;-68
2022/05/07 07:50:41;;;;;;;;;24.25;20.00;;;;;17.06;54.48;101909.28;5095257;27;45362;-68
2022/05/07 07:53:11;;;;;;;;;17.00;17.00;;;;;17.31;54.40;101947.53;5094929;27;45429;-66
2022/05/07 07:55:37;;;;;;;;;29.00;26.00;;;;;17.16;54.14;101917.53;5095080;27;45414;-67
2022/05/07 07:58:05;;;;;;;;;19.25;19.25;;;;;17.37;54.39;101942.22;5094881;27;45301;-69
2022/05/07 08:00:31;;;;;;;;;18.00;14.00;;;;;17.19;54.37;101898.69;5095190;27;45530;-67
2022/05/07 08:03:05;;;;;;;;;24.00;20.50;;;;;16.95;54.25;101867.69;5094668;27;46275;-67
2022/05/07 08:05:33;;;;;;;;;28.75;25.50;;;;;17.04;54.53;101869.63;5094931;27;45336;-67
2022/05/07 08:13:33;;;;;;;;;18.75;18.75;;;;;17.46;54.00;101936.09;5114346;27;45383;-67
2022/05/07 08:15:59;;;;;;;;;17.75;16.75;;;;;17.53;54.07;101926.28;5114297;27;45365;-67
2022/05/07 08:18:25;;;;;;;;;15.50;13.50;;;;;17.16;54.06;101855.41;5114168;27;45492;-67
2022/05/07 08:20:50;;;;;;;;;17.75;16.25;;;;;17.43;53.59;101915.31;5113951;27;45320;-71
2022/05/07 08:23:17;;;;;;;;;19.25;17.00;;;;;17.61;53.71;101938.13;5113894;27;46000;-69
2022/05/07 08:25:42;;;;;;;;;22.25;18.00;;;;;17.56;53.70;101921.84;5114262;27;47102;-68
2022/05/07 08:28:07;;;;;;;;;20.25;15.75;;;;;17.50;53.48;101902.81;5082808;27;45578;-69
2022/05/07 08:30:33;;;;;;;;;21.25;16.25;;;;;17.69;53.68;101929.25;5114529;27;45355;-68
2022/05/07 08:32:59;;;;;;;;;17.75;17.00;;;;;17.83;53.28;101948.38;5113824;27;47038;-68
2022/05/07 08:35:24;;;;;;;;;18.25;15.25;;;;;17.87;53.06;101941.28;5113909;27;45412;-67
2022/05/07 08:37:52;;;;;;;;;14.50;12.25;;;;;17.95;53.13;101942.31;5113799;27;45369;-67
2022/05/07 08:40:20;;;;;;;;;17.75;12.50;;;;;18.00;52.97;101942.38;5114286;27;45413;-67
2022/05/07 08:42:45;;;;;;;;;16.00;14.75;;;;;18.02;52.76;101943.31;5113819;27;46437;-66
2022/05/07 08:45:14;;;;;;;;;21.75;17.25;;;;;17.92;52.68;101912.53;5113769;27;45419;-68
2022/05/07 08:47:41;;;;;;;;;18.25;13.00;;;;;18.05;52.96;101943.38;5113889;27;45436;-68
2022/05/07 08:50:13;;;;;;;;;16.25;14.00;;;;;18.16;53.03;101948.91;5113752;27;45431;-66
2022/05/07 08:52:42;;;;;;;;;14.50;14.25;;;;;18.33;52.51;101933.84;5094674;27;47376;-67
2022/05/07 08:55:11;;;;;;;;;33.25;29.50;;;;;18.39;51.88;101923.06;5113371;27;45427;-66
2022/05/07 08:57:37;;;;;;;;;17.25;14.75;;;;;18.29;52.00;101891.38;5113827;27;45545;-66
2022/05/07 09:00:04;;;;;;;;;16.25;15.00;;;;;18.63;51.30;101931.47;5113759;27;45293;-68
2022/05/07 09:02:41;;;;;;;;;16.50;13.50;;;;;18.68;51.21;101933.38;5113052;27;47140;-67
2022/05/07 09:05:07;;;;;;;;;20.50;15.00;;;;;18.60;51.20;101917.03;5113107;27;45326;-68
2022/05/07 09:07:33;;;;;;;;;17.75;14.25;;;;;18.75;51.21;101932.53;5117119;27;45424;-66
2022/05/07 09:09:58;;;;;;;;;12.75;10.75;;;;;18.38;50.94;101856.34;5117093;27;45674;-67
2022/05/07 09:12:28;;;;;;;;;22.25;16.75;;;;;18.86;50.85;101927.28;5117127;27;46211;-67
2022/05/07 09:15:01;;;;;;;;;18.50;16.25;;;;;18.94;50.83;101927.34;5116898;27;45528;-67
2022/05/07 09:17:27;;;;;;;;;17.25;16.75;;;;;18.96;50.71;101903.94;5117416;27;45707;-67
2022/05/07 09:19:52;;;;;;;;;23.25;20.25;;;;;18.98;50.64;101885.00;5098320;27;45412;-68
2022/05/07 09:22:18;;;;;;;;;22.50;22.50;;;;;19.28;50.39;101922.28;5110509;27;45567;-67
2022/05/07 09:24:55;;;;;;;;;14.50;13.50;;;;;19.36;49.94;101923.28;5097942;27;45372;-66
2022/05/07 09:27:24;;;;;;;;;17.25;15.75;;;;;19.43;49.76;101925.13;5117039;27;45348;-69
2022/05/07 09:30:02;;;;;;;;;13.50;13.50;;;;;19.51;49.71;101915.25;5116762;27;45525;-67
2022/05/07 09:32:38;;;;;;;;;17.50;14.00;;;;;19.62;49.35;101912.66;5116442;27;46163;-67
2022/05/07 09:38:00;;;;;;;;;19.50;19.25;;;;;19.62;49.28;101903.63;5116657;27;45357;-68
2022/05/07 09:40:26;;;;;;;;;21.50;21.50;;;;;19.87;49.00;101915.56;5117034;27;45530;-66
2022/05/07 09:42:55;;;;;;;;;28.75;26.50;;;;;20.00;48.84;101901.19;5116235;27;47307;-68
2022/05/07 09:45:21;;;;;;;;;21.00;18.00;;;;;20.12;48.31;101896.72;5116368;27;45459;-66
2022/05/07 09:47:46;;;;;;;;;20.25;16.25;;;;;20.31;48.11;101914.91;5116680;27;45577;-67
2022/05/07 09:50:22;;;;;;;;;13.00;11.75;;;;;20.41;47.88;101907.72;5116665;27;45458;-68
2022/05/07 09:58:18;;;;;;;;;17.50;15.25;;;;;20.76;46.82;101899.72;5116442;27;45448;-68
2022/05/07 10:00:58;;;;;;;;;13.75;13.75;;;;;20.82;46.49;101898.81;5116374;27;45558;-68
2022/05/07 10:04:08;;;;;;;;;19.00;16.00;;;;;20.31;46.66;101821.72;5116159;27;46248;-67
2022/05/07 10:06:51;;;;;;;;;17.00;15.50;;;;;20.92;46.51;101894.31;5116153;27;45311;-69
2022/05/07 10:09:54;;;;;;;;;12.00;12.00;;;;;21.04;46.13;101886.19;5115834;27;45290;-69
2022/05/07 10:12:21;;;;;;;;;19.67;14.67;;;;;21.12;46.36;101889.81;5097118;27;45349;-68
2022/05/07 10:14:47;;;;;;;;;19.25;12.50;;;;;20.99;45.56;101860.84;5115823;27;46219;-69
2022/05/07 10:17:14;;;;;;;;;14.50;13.75;;;;;21.14;45.93;101888.00;5114358;27;45509;-69
2022/05/07 10:19:44;;;;;;;;;10.67;10.33;;;;;21.10;45.88;101888.94;5084077;27;45492;-68
2022/05/07 10:22:26;;;;;;;;;18.33;12.33;;;;;21.22;45.82;101896.19;5115949;27;45591;-69
2022/05/07 10:25:11;;;;;;;;;20.25;18.50;;;;;21.28;45.58;101874.44;5115622;27;45359;-68
2022/05/07 10:27:42;;;;;;;;;16.67;14.67;;;;;21.43;45.09;101884.41;5115450;27;45285;-69
2022/05/07 10:30:15;;;;;;;;;15.00;12.33;;;;;21.60;44.64;101888.97;5115279;27;45506;-66
2022/05/07 10:33:01;;;;;;;;;19.00;15.25;;;;;21.67;44.28;101883.50;5115724;27;45373;-68
2022/05/07 10:35:44;;;;;;;;;15.00;11.33;;;;;21.80;44.43;101895.25;5115433;27;45412;-67
2022/05/07 10:38:37;;;;;;;;;15.00;11.67;;;;;21.92;43.89;101896.16;5115356;27;45337;-71
2022/05/07 10:41:05;;;;;;;;;13.67;13.00;;;;;21.92;43.98;101885.28;5115645;27;45439;-68
2022/05/07 10:43:36;;;;;;;;;20.33;15.67;;;;;21.95;43.80;101886.16;5115581;27;45415;-67
2022/05/07 10:46:07;;;;;;;;;11.67;11.00;;;;;22.03;43.92;101889.78;5115256;27;47400;-69
2022/05/07 10:48:47;;;;;;;;;12.00;10.67;;;;;22.08;43.86;101895.22;5096640;27;45434;-70
2022/05/07 10:51:21;;;;;;;;;13.33;12.33;;;;;22.00;43.52;101876.16;5115542;27;45659;-68
2022/05/07 10:53:48;;;;;;;;;12.67;12.67;;;;;22.08;43.71;101879.78;5115749;27;45336;-70
2022/05/07 10:56:18;;;;;;;;;12.67;12.67;;;;;22.00;43.50;101872.56;5114748;27;46060;-68
2022/05/07 10:58:47;;;;;;;;;65.25;51.50;;;;;22.12;43.85;101886.09;5116055;27;45424;-68
2022/05/07 11:01:13;;;;;;;;;22.50;17.25;;;;;22.09;43.73;101886.09;5116365;27;45449;-70
2022/05/07 11:03:39;;;;;;;;;13.33;12.00;;;;;22.11;43.61;101883.38;5116068;27;45242;-70
2022/05/07 11:06:04;;;;;;;;;14.00;12.33;;;;;21.65;43.25;101809.16;5115404;27;45569;-69
2022/05/07 11:08:30;;;;;;;;;17.67;15.00;;;;;21.85;43.45;101838.13;5115138;27;45404;-68
2022/05/07 11:11:10;;;;;;;;;13.33;12.33;;;;;22.01;43.37;101852.56;5115537;27;45238;-68
2022/05/07 11:13:52;;;;;;;;;14.00;13.33;;;;;22.03;43.53;101848.94;5115798;27;46096;-69
2022/05/07 11:16:20;;;;;;;;;23.75;22.75;;;;;22.21;43.61;101868.84;5114882;27;45314;-68
2022/05/07 11:18:54;;;;;;;;;27.00;24.25;;;;;22.25;43.53;101876.09;5114338;27;45394;-68
2022/05/07 11:21:24;;;;;;;;;13.67;12.33;;;;;22.18;43.55;101867.03;5096196;27;45564;-70
2022/05/07 11:23:57;;;;;;;;;16.00;13.00;;;;;22.15;43.53;101879.75;5109087;27;45413;-67
2022/05/07 11:26:24;;;;;;;;;19.25;14.25;;;;;21.68;43.65;101802.81;5114578;27;45447;-68
2022/05/07 11:28:51;;;;;;;;;12.33;12.00;;;;;21.95;43.88;101871.66;5114034;27;45299;-68
2022/05/07 11:31:34;;;;;;;;;14.33;13.00;;;;;21.96;44.17;101874.38;5114481;27;45411;-67
2022/05/07 11:34:04;;;;;;;;;20.75;17.50;;;;;21.98;44.08;101877.09;5115119;27;45702;-68
2022/05/07 11:36:30;;;;;;;;;15.67;14.33;;;;;21.98;44.07;101868.94;5095683;27;47532;-68
2022/05/07 11:39:01;;;;;;;;;15.75;14.75;;;;;21.84;44.31;101841.75;5114439;27;45409;-69
2022/05/07 11:41:26;;;;;;;;;15.50;15.00;;;;;21.99;44.25;101857.13;5098089;27;45409;-68
2022/05/07 11:46:54;;;;;;;;;15.00;10.67;;;;;22.03;44.24;101838.06;5094768;27;46043;-67
2022/05/07 11:49:28;;;;;;;;;9.33;7.33;;;;;22.22;44.68;101868.84;5100967;27;45500;-70